Salem, Salem Airport (VOSM)

NameSalem Airport
CitySalem
CountryIndia
ICAOVOSM
IATASXV
Altitude307 m
CoordinatesGoogle Map
Live Air TrafficLiveATC.net
METARVOSM 170800Z 34006KT 7000 SCT018 OVC080 29/22 Q1007 NOSIG
2019-08-17 08:00:00 Wind: North-Northwest (340°) 3.09 m/s - Visibility: 7000 m - Temperature: 29 °C - Dew point: 22 °C - Humidity: 66% - Pressure: 1007 hPa

Sorry, no flights used the airport in this database.